createdAt,value
2023-05-20T00:00:14.145Z,78.23
2023-05-20T00:05:51.783Z,78.23
2023-05-20T00:11:13.456Z,78.02
2023-05-20T00:16:35.264Z,77.95
2023-05-20T00:21:58.188Z,77.83
2023-05-20T00:27:20.064Z,77.64
2023-05-20T00:32:41.574Z,78.00
2023-05-20T00:38:03.677Z,77.98
2023-05-20T00:43:26.710Z,77.84
2023-05-20T00:48:48.823Z,77.93
2023-05-20T00:54:11.065Z,78.06
2023-05-20T00:59:36.980Z,77.94
2023-05-20T01:04:59.329Z,77.96
2023-05-20T01:10:23.599Z,78.20
2023-05-20T01:15:48.472Z,78.23
2023-05-20T01:21:12.592Z,78.05
2023-05-20T01:26:38.519Z,77.84
2023-05-20T01:32:01.580Z,77.82
2023-05-20T01:37:25.329Z,78.04
2023-05-20T01:42:53.237Z,77.70
2023-05-20T01:48:15.560Z,77.40
2023-05-20T01:53:37.207Z,77.36
2023-05-20T01:58:58.702Z,77.36
2023-05-20T02:04:21.615Z,77.71
2023-05-20T02:09:43.624Z,77.91
2023-05-20T02:15:06.159Z,77.63
2023-05-20T02:20:28.204Z,77.66
2023-05-20T02:25:50.239Z,77.79
2023-05-20T02:31:13.237Z,77.85
2023-05-20T02:36:34.729Z,77.58
2023-05-20T02:41:57.061Z,77.84
2023-05-20T02:47:19.121Z,77.54
2023-05-20T02:52:42.709Z,77.88
2023-05-20T02:58:04.620Z,78.28
2023-05-20T03:03:28.154Z,78.29
2023-05-20T03:08:50.078Z,78.48
2023-05-20T03:14:11.873Z,78.54
2023-05-20T03:19:33.743Z,78.51
2023-05-20T03:24:58.206Z,78.29
2023-05-20T03:30:21.248Z,78.66
2023-05-20T03:35:43.307Z,78.82
2023-05-20T03:41:05.406Z,78.79
2023-05-20T03:46:28.166Z,79.14
2023-05-20T03:51:50.222Z,79.35
2023-05-20T03:57:12.037Z,79.37
2023-05-20T04:02:34.232Z,79.32
2023-05-20T04:08:00.261Z,79.24
2023-05-20T04:13:22.586Z,79.40
2023-05-20T04:18:46.209Z,79.39
2023-05-20T04:24:09.925Z,79.34
2023-05-20T04:29:34.447Z,79.22
2023-05-20T04:34:57.509Z,79.68
2023-05-20T04:40:21.121Z,79.32
2023-05-20T04:45:42.959Z,79.45
2023-05-20T04:51:07.463Z,79.47
2023-05-20T04:56:29.034Z,79.21
2023-05-20T05:01:51.442Z,78.95
2023-05-20T05:07:13.466Z,79.02
2023-05-20T05:12:35.146Z,78.73
2023-05-20T05:17:57.812Z,78.32
2023-05-20T05:23:22.912Z,78.21
2023-05-20T05:28:44.521Z,78.31
2023-05-20T05:34:06.512Z,78.31
2023-05-20T05:39:28.172Z,78.09
2023-05-20T05:44:50.422Z,78.13
2023-05-20T05:50:12.669Z,77.89
2023-05-20T05:55:34.904Z,77.79
2023-05-20T06:00:57.744Z,77.58
2023-05-20T06:06:19.578Z,77.52
2023-05-20T06:11:42.440Z,77.31
2023-05-20T06:17:05.963Z,77.19
2023-05-20T06:22:27.896Z,77.04
2023-05-20T06:27:50.123Z,76.72
2023-05-20T06:33:14.351Z,76.77
2023-05-20T06:38:35.978Z,76.69
2023-05-20T06:43:58.223Z,76.75
2023-05-20T06:49:49.665Z,76.58
2023-05-20T06:55:12.324Z,76.32
2023-05-20T07:00:35.410Z,75.94
2023-05-20T07:05:57.572Z,75.75
2023-05-20T07:11:19.438Z,75.49
2023-05-20T07:16:41.660Z,75.20
2023-05-20T07:22:03.919Z,75.00
2023-05-20T07:27:49.395Z,74.88
2023-05-20T07:33:12.017Z,74.45
2023-05-20T07:38:34.087Z,74.01
2023-05-20T07:43:59.537Z,73.68
2023-05-20T07:49:22.196Z,73.44
2023-05-20T07:54:44.194Z,73.80
2023-05-20T08:00:07.596Z,73.49
2023-05-20T08:05:41.124Z,73.11
2023-05-20T08:11:04.283Z,72.90
2023-05-20T08:16:26.723Z,72.48
2023-05-20T08:21:49.888Z,72.06
2023-05-20T08:27:12.137Z,71.43
2023-05-20T08:32:36.669Z,71.16
2023-05-20T08:37:59.014Z,70.85
2023-05-20T08:43:21.308Z,70.15
2023-05-20T08:48:44.617Z,70.15
2023-05-20T08:54:10.265Z,69.61
2023-05-20T08:59:32.378Z,69.21
2023-05-20T09:04:54.381Z,68.76
2023-05-20T09:10:16.687Z,68.46
2023-05-20T09:15:39.270Z,68.38
2023-05-20T09:21:06.703Z,68.23
2023-05-20T09:26:30.256Z,68.13
2023-05-20T09:31:53.391Z,67.88
2023-05-20T12:27:06.684Z,53.92
2023-05-20T12:32:28.856Z,56.24
2023-05-20T12:37:50.884Z,58.56
2023-05-20T12:43:12.662Z,59.55
2023-05-20T12:48:34.585Z,60.06
2023-05-20T12:53:56.519Z,60.30
2023-05-20T12:59:18.351Z,60.30
2023-05-20T13:04:40.577Z,60.30
2023-05-20T13:10:03.118Z,60.27
2023-05-20T13:15:27.405Z,59.68
2023-05-20T13:20:50.232Z,59.17
2023-05-20T13:26:12.078Z,59.10
2023-05-20T13:31:35.373Z,59.07
2023-05-20T13:36:57.165Z,58.56
2023-05-20T13:42:18.646Z,59.25
2023-05-20T13:47:40.634Z,58.66
2023-05-20T13:53:03.147Z,57.72
2023-05-20T13:58:25.260Z,57.94
2023-05-20T14:03:49.728Z,58.80
2023-05-20T14:09:13.595Z,58.46
2023-05-20T14:14:37.403Z,56.95
2023-05-20T14:20:00.796Z,56.57
2023-05-20T14:25:23.286Z,55.85
2023-05-20T14:30:45.537Z,55.40
2023-05-20T14:36:08.825Z,55.44
2023-05-20T14:41:31.106Z,55.19
2023-05-20T14:46:52.861Z,55.48
2023-05-20T14:52:14.818Z,55.67
2023-05-20T14:57:38.786Z,55.51
2023-05-20T15:03:00.808Z,55.53
2023-05-20T15:08:22.840Z,55.62
2023-05-20T15:13:48.970Z,53.92
2023-05-20T15:19:13.086Z,53.02
2023-05-20T15:24:34.966Z,53.73
2023-05-20T15:29:59.928Z,54.07
2023-05-20T15:35:22.964Z,53.60
2023-05-20T15:40:45.331Z,53.19
2023-05-20T15:46:07.448Z,52.82
2023-05-20T15:51:30.998Z,53.52
2023-05-20T15:56:52.983Z,53.94
2023-05-20T16:02:14.851Z,52.75
2023-05-20T16:07:37.032Z,52.46
2023-05-20T16:12:59.726Z,52.37
2023-05-20T16:18:23.338Z,52.44
2023-05-20T16:23:45.162Z,52.42
2023-05-20T16:29:07.241Z,52.88
2023-05-20T16:34:29.097Z,53.20
2023-05-20T16:39:50.892Z,53.59
2023-05-20T16:45:12.793Z,54.31
2023-05-20T16:50:37.037Z,54.82
2023-05-20T16:55:59.075Z,55.79
2023-05-20T17:01:23.396Z,56.65
2023-05-20T17:06:48.536Z,57.38
2023-05-20T17:12:11.067Z,57.73
2023-05-20T17:17:33.325Z,58.72
2023-05-20T17:22:57.605Z,59.54
2023-05-20T17:28:19.500Z,60.21
2023-05-20T17:33:41.698Z,60.96
2023-05-20T17:39:10.704Z,61.56
2023-05-20T17:44:32.469Z,62.17
2023-05-20T17:49:55.326Z,62.58
2023-05-20T17:55:18.484Z,62.98
2023-05-20T18:00:42.473Z,63.76
2023-05-20T18:06:06.142Z,64.18
2023-05-20T18:11:29.434Z,64.75
2023-05-20T18:16:51.524Z,65.34
2023-05-20T18:22:13.486Z,65.99
2023-05-20T18:27:35.918Z,66.47
2023-05-20T18:33:04.901Z,67.10
2023-05-20T18:38:26.664Z,67.55
2023-05-20T18:43:49.760Z,68.14
2023-05-20T18:49:11.706Z,68.59
2023-05-20T18:54:33.859Z,69.17
2023-05-20T18:59:56.063Z,69.62
2023-05-20T19:05:19.946Z,70.32
2023-05-20T19:10:43.343Z,71.11
2023-05-20T19:16:05.702Z,71.47
2023-05-20T19:21:27.978Z,71.77
2023-05-20T19:26:51.424Z,72.02
2023-05-20T19:32:13.750Z,71.88
2023-05-20T19:37:36.047Z,71.46
2023-05-20T19:42:58.027Z,71.86
2023-05-20T19:48:22.212Z,72.33
2023-05-20T19:53:44.714Z,72.50
2023-05-20T19:59:06.500Z,71.91
2023-05-20T20:04:29.637Z,71.50
2023-05-20T20:09:55.331Z,71.33
2023-05-20T20:15:17.101Z,71.38
2023-05-20T20:20:42.669Z,71.30
2023-05-20T20:26:06.288Z,71.31
2023-05-20T20:31:28.857Z,71.33
2023-05-20T20:36:51.501Z,71.26
2023-05-20T20:42:23.817Z,70.92
2023-05-20T20:47:45.962Z,70.58
2023-05-20T20:53:07.503Z,70.41
2023-05-20T20:58:29.345Z,70.40
2023-05-20T21:03:54.579Z,70.73
2023-05-20T21:09:17.119Z,70.59
2023-05-20T21:14:38.978Z,71.01
2023-05-20T21:20:00.690Z,71.24
2023-05-20T21:25:22.406Z,71.35
2023-05-20T21:30:45.243Z,71.67
2023-05-20T21:36:09.007Z,71.91
2023-05-20T21:41:31.511Z,72.02
2023-05-20T21:46:53.655Z,72.29
2023-05-20T21:52:18.606Z,72.79
2023-05-20T21:57:40.429Z,73.06
2023-05-20T22:03:03.720Z,73.38
2023-05-20T22:08:35.499Z,73.70
2023-05-20T22:13:59.687Z,73.89
2023-05-20T22:19:23.987Z,74.02
2023-05-20T22:24:46.008Z,74.33
2023-05-20T22:30:12.301Z,74.58
2023-05-20T22:35:34.204Z,74.71
2023-05-20T22:41:06.000Z,74.80
2023-05-20T22:46:38.871Z,75.04
2023-05-20T22:52:03.039Z,75.10
2023-05-20T22:57:25.582Z,75.44
2023-05-20T23:02:50.161Z,75.56
2023-05-20T23:08:12.505Z,75.57
2023-05-20T23:13:35.843Z,75.65
2023-05-20T23:18:58.279Z,75.44
2023-05-20T23:24:20.212Z,75.31
2023-05-20T23:29:42.374Z,75.30
2023-05-20T23:35:05.055Z,75.26
2023-05-20T23:40:26.694Z,75.17
2023-05-20T23:45:48.569Z,75.38
2023-05-20T23:51:14.055Z,75.36
2023-05-20T23:56:36.922Z,75.47
